Terminal Aerodrome Forecast
Issued by NWS Sterling, VA

Home | Current Version | Previous Version | Text Only | Print | Product List | Glossary On
Versions: 1 2 3 4 5 6 7 8 9 10 11 12 13 14 15 16 17 18 19 20 21 22 23 24 25 26 27
000
FTUS41 KLWX 240522
TAFBWI
TAF
KBWI 240522Z 2406/2512 14009G24KT P6SM -RA BKN017 BKN040 OVC080
      WS020/16045KT
     FM240900 17008KT 4SM SHRA OVC020 WS020/17045KT
     FM241100 18010KT 4SM SHRA OVC015
     FM241500 19008KT P6SM BKN030
     FM241700 20008KT P6SM SCT035
     FM250200 26006KT P6SM SCT060
     FM250800 31006KT P6SM SCT250=

USA.gov is the U.S. government's official web portal to all federal, state and local government web resources and services.